createdAt,value
2017-04-04T00:00:44.732Z,25.97
2017-04-04T00:01:49.501Z,25.43
2017-04-04T00:02:56.960Z,25.93
2017-04-04T00:04:02.496Z,26.45
2017-04-04T00:05:08.338Z,25.52
2017-04-04T00:06:13.065Z,26.27
2017-04-04T00:07:18.629Z,26.12
2017-04-04T00:08:24.351Z,24.08
2017-04-04T00:09:29.705Z,24.78
2017-04-04T00:10:34.370Z,26.87
2017-04-04T00:11:39.064Z,26.73
2017-04-04T00:12:43.709Z,27.75
2017-04-04T00:13:49.192Z,26.55
2017-04-04T00:14:54.722Z,27.03
2017-04-04T00:15:59.513Z,25.92
2017-04-04T00:17:05.100Z,27.67
2017-04-04T00:18:09.781Z,26.42
2017-04-04T00:19:15.436Z,27.20
2017-04-04T00:20:21.041Z,27.28
2017-04-04T00:21:26.637Z,26.45
2017-04-04T00:22:32.201Z,27.65
2017-04-04T00:23:37.804Z,27.98
2017-04-04T00:24:43.388Z,27.62
2017-04-04T00:25:48.326Z,27.70
2017-04-04T00:26:54.676Z,27.42
2017-04-04T00:27:59.483Z,27.27
2017-04-04T00:29:05.757Z,27.42
2017-04-04T00:30:10.541Z,27.08
2017-04-04T00:31:16.888Z,28.93
2017-04-04T00:32:21.732Z,27.20
2017-04-04T00:33:27.365Z,28.38
2017-04-04T00:34:33.678Z,27.02
2017-04-04T00:35:38.396Z,26.27
2017-04-04T00:36:44.706Z,27.48
2017-04-04T00:37:50.306Z,26.68
2017-04-04T00:38:55.842Z,25.98
2017-04-04T00:40:01.493Z,26.25
2017-04-04T00:41:07.116Z,28.08
2017-04-04T00:42:11.980Z,27.75
2017-04-04T00:43:18.337Z,29.43
2017-04-04T00:44:23.189Z,27.48
2017-04-04T00:45:28.772Z,27.73
2017-04-04T00:46:33.588Z,27.02
2017-04-04T00:47:39.152Z,27.65
2017-04-04T00:48:45.376Z,28.38
2017-04-04T00:49:50.329Z,26.35
2017-04-04T00:50:56.660Z,26.97
2017-04-04T00:52:01.577Z,27.58
2017-04-04T00:53:07.042Z,26.23
2017-04-04T00:54:12.636Z,27.58
2017-04-04T00:55:19.004Z,28.75
2017-04-04T00:56:24.661Z,27.77
2017-04-04T00:57:29.456Z,28.10
2017-04-04T00:58:34.892Z,26.38
2017-04-04T00:59:40.452Z,28.72
2017-04-04T01:00:45.257Z,27.17
2017-04-04T01:01:50.700Z,28.45
2017-04-04T01:02:56.404Z,28.10
2017-04-04T01:04:01.966Z,27.85
2017-04-04T01:05:06.729Z,27.05
2017-04-04T01:06:13.081Z,27.63
2017-04-04T01:07:17.877Z,26.47
2017-04-04T01:08:24.241Z,26.62
2017-04-04T01:09:30.568Z,26.53
2017-04-04T01:10:35.383Z,27.03
2017-04-04T01:11:41.005Z,26.63
2017-04-04T01:12:47.319Z,26.87
2017-04-04T01:13:53.712Z,27.67
2017-04-04T01:14:58.753Z,27.35
2017-04-04T01:16:04.453Z,28.12
2017-04-04T01:17:09.914Z,28.32
2017-04-04T01:18:15.561Z,27.10
2017-04-04T01:19:21.304Z,28.22
2017-04-04T01:20:28.125Z,27.52
2017-04-04T01:21:33.248Z,26.35
2017-04-04T01:22:37.964Z,27.33
2017-04-04T01:23:42.693Z,26.25
2017-04-04T01:24:48.373Z,28.20
2017-04-04T01:25:53.997Z,27.32
2017-04-04T01:26:59.315Z,28.30
2017-04-04T01:28:04.687Z,28.35
2017-04-04T01:29:09.461Z,28.43
2017-04-04T01:30:15.165Z,28.38
2017-04-04T01:31:20.560Z,28.48
2017-04-04T01:32:26.117Z,28.00
2017-04-04T01:33:32.433Z,27.08
2017-04-04T01:34:37.440Z,26.27
2017-04-04T01:35:43.040Z,28.45
2017-04-04T01:36:47.698Z,28.15
2017-04-04T01:37:53.356Z,27.23
2017-04-04T01:38:58.812Z,29.57
2017-04-04T01:40:05.213Z,27.83
2017-04-04T01:41:10.830Z,28.13
2017-04-04T01:42:16.372Z,28.20
2017-04-04T01:43:21.277Z,27.93
2017-04-04T01:44:26.914Z,27.35
2017-04-04T01:45:32.384Z,27.53
2017-04-04T01:46:38.867Z,28.65
2017-04-04T01:47:43.505Z,28.28
2017-04-04T01:48:49.684Z,26.50
2017-04-04T01:49:54.544Z,27.63
2017-04-04T01:51:00.113Z,29.10
2017-04-04T01:52:05.760Z,28.88
2017-04-04T01:53:11.225Z,29.02
2017-04-04T01:54:16.808Z,28.63
2017-04-04T01:55:21.605Z,28.10
2017-04-04T01:56:27.100Z,28.27
2017-04-04T01:57:36.429Z,29.18
2017-04-04T01:58:42.036Z,27.85
2017-04-04T01:59:47.720Z,28.57
2017-04-04T02:00:52.464Z,28.33
2017-04-04T02:01:57.203Z,28.70
2017-04-04T02:03:02.865Z,29.27
2017-04-04T02:04:08.533Z,28.43
2017-04-04T02:05:14.109Z,27.15
2017-04-04T02:06:19.704Z,29.03
2017-04-04T02:07:25.128Z,28.92
2017-04-04T02:08:30.097Z,28.13
2017-04-04T02:09:35.762Z,29.68
2017-04-04T02:10:41.889Z,29.55
2017-04-04T02:11:47.529Z,28.63
2017-04-04T02:12:52.225Z,29.25
2017-04-04T02:13:56.940Z,29.63
2017-04-04T02:15:02.496Z,28.93
2017-04-04T02:16:07.185Z,28.48
2017-04-04T02:17:12.813Z,28.58
2017-04-04T02:18:18.341Z,29.00
2017-04-04T02:19:24.049Z,28.55
2017-04-04T02:20:29.570Z,29.78
2017-04-04T02:21:35.187Z,28.03
2017-04-04T02:22:41.424Z,28.50
2017-04-04T02:23:46.220Z,28.43
2017-04-04T02:24:51.934Z,30.12
2017-04-04T02:25:57.538Z,28.58
2017-04-04T02:27:03.128Z,29.72
2017-04-04T02:28:08.769Z,28.73
2017-04-04T02:29:14.445Z,29.17
2017-04-04T02:30:20.873Z,28.57
2017-04-04T02:31:26.434Z,28.70
2017-04-04T02:32:31.272Z,29.40
2017-04-04T02:33:36.836Z,30.25
2017-04-04T02:34:42.487Z,28.20
2017-04-04T02:35:48.001Z,30.23
2017-04-04T02:36:53.596Z,26.95
2017-04-04T02:38:00.058Z,30.22
2017-04-04T02:39:05.105Z,30.35
2017-04-04T02:40:11.305Z,29.85
2017-04-04T02:41:16.205Z,30.07
2017-04-04T02:42:21.693Z,32.07
2017-04-04T02:43:27.320Z,31.55
2017-04-04T02:44:32.980Z,30.20
2017-04-04T02:45:38.552Z,29.20
2017-04-04T02:46:44.025Z,30.33
2017-04-04T02:47:49.640Z,29.27
2017-04-04T02:48:54.408Z,30.28
2017-04-04T02:50:00.798Z,29.98
2017-04-04T02:51:05.693Z,30.07
2017-04-04T02:52:11.201Z,30.13
2017-04-04T02:53:17.605Z,29.43
2017-04-04T02:54:23.212Z,29.88
2017-04-04T02:55:28.762Z,27.97
2017-04-04T02:56:33.577Z,29.95
2017-04-04T02:57:41.798Z,30.88
2017-04-04T02:58:46.580Z,30.85
2017-04-04T02:59:52.185Z,30.45
2017-04-04T03:00:57.893Z,28.63
2017-04-04T03:02:03.377Z,27.13
2017-04-04T03:03:08.130Z,29.92
2017-04-04T03:04:13.745Z,30.48
2017-04-04T03:05:20.028Z,28.13
2017-04-04T03:06:25.681Z,28.52
2017-04-04T03:07:30.362Z,27.22
2017-04-04T03:08:35.185Z,29.32
2017-04-04T03:09:40.509Z,28.87
2017-04-04T03:10:46.189Z,28.57
2017-04-04T03:11:51.120Z,28.45
2017-04-04T03:12:56.564Z,31.05
2017-04-04T03:14:04.105Z,30.73
2017-04-04T03:15:09.802Z,30.50
2017-04-04T03:16:15.384Z,29.73
2017-04-04T03:17:20.013Z,30.33
2017-04-04T03:18:26.241Z,30.70
2017-04-04T03:19:31.053Z,29.78
2017-04-04T03:20:36.562Z,29.22
2017-04-04T03:21:42.849Z,29.42
2017-04-04T03:22:48.388Z,31.40
2017-04-04T03:23:53.076Z,30.27
2017-04-04T03:24:58.665Z,29.58
2017-04-04T03:26:05.104Z,29.67
2017-04-04T03:27:09.998Z,28.62
2017-04-04T03:28:15.512Z,28.87
2017-04-04T03:29:21.064Z,31.57
2017-04-04T03:30:27.529Z,32.68
2017-04-04T03:31:32.209Z,31.87
2017-04-04T03:32:37.805Z,31.75
2017-04-04T03:33:43.445Z,31.67
2017-04-04T03:34:48.120Z,31.70
2017-04-04T03:35:54.552Z,31.82
2017-04-04T03:36:59.308Z,31.97
2017-04-04T03:38:04.917Z,33.80
2017-04-04T03:39:10.412Z,32.83
2017-04-04T03:40:16.135Z,33.90
2017-04-04T03:41:21.578Z,34.87
2017-04-04T03:42:27.069Z,36.15
2017-04-04T03:43:32.597Z,33.47
2017-04-04T03:44:38.164Z,32.57
2017-04-04T03:45:43.756Z,32.48
2017-04-04T03:46:49.442Z,31.02
2017-04-04T03:47:54.889Z,31.70
2017-04-04T03:49:00.445Z,31.80
2017-04-04T03:50:05.217Z,33.35
2017-04-04T03:51:09.889Z,32.78
2017-04-04T03:52:15.585Z,32.68
2017-04-04T03:53:20.361Z,32.18
2017-04-04T03:54:25.809Z,32.15
2017-04-04T03:55:32.197Z,32.02
2017-04-04T03:56:37.016Z,32.43
2017-04-04T03:57:42.852Z,33.55
2017-04-04T03:58:47.673Z,31.25
2017-04-04T03:59:54.730Z,31.08
2017-04-04T04:00:59.822Z,34.12
2017-04-04T04:02:05.418Z,33.35
2017-04-04T04:03:10.865Z,30.90
2017-04-04T04:04:15.617Z,32.47
2017-04-04T04:05:22.056Z,31.33
2017-04-04T04:06:27.585Z,31.23
2017-04-04T04:07:32.452Z,30.23
2017-04-04T04:08:38.090Z,32.17
2017-04-04T04:09:43.568Z,31.90
2017-04-04T04:10:48.517Z,34.33
2017-04-04T04:11:54.117Z,32.60
2017-04-04T04:13:00.488Z,33.68
2017-04-04T04:14:05.428Z,31.43
2017-04-04T04:15:11.002Z,31.05
2017-04-04T04:16:17.310Z,31.13
2017-04-04T04:17:22.085Z,32.12
2017-04-04T04:18:26.785Z,31.03
2017-04-04T04:19:32.317Z,30.00
2017-04-04T04:20:37.737Z,30.93
2017-04-04T04:21:42.420Z,31.98
2017-04-04T04:22:47.801Z,31.18
2017-04-04T04:23:52.536Z,30.27
2017-04-04T04:24:57.260Z,31.50
2017-04-04T04:26:03.524Z,33.30
2017-04-04T04:27:09.350Z,33.73
2017-04-04T04:28:14.917Z,33.68
2017-04-04T04:29:20.697Z,33.00
2017-04-04T04:30:26.172Z,34.22
2017-04-04T04:31:31.800Z,31.35
2017-04-04T04:32:37.880Z,33.05
2017-04-04T04:33:42.801Z,33.52
2017-04-04T04:34:48.376Z,33.22
2017-04-04T04:35:54.016Z,35.53
2017-04-04T04:36:59.501Z,33.45
2017-04-04T04:38:04.933Z,32.43
2017-04-04T04:39:09.580Z,34.78
2017-04-04T04:40:15.204Z,34.67
2017-04-04T04:41:20.833Z,35.12
2017-04-04T04:42:26.325Z,34.08
2017-04-04T04:43:31.763Z,34.57
2017-04-04T04:44:38.090Z,35.60
2017-04-04T04:45:43.632Z,33.63
2017-04-04T04:46:48.620Z,33.93
2017-04-04T04:47:54.060Z,34.45
2017-04-04T04:48:59.540Z,33.25
2017-04-04T04:50:04.981Z,33.57
2017-04-04T04:51:10.704Z,32.37
2017-04-04T04:52:15.612Z,33.28
2017-04-04T04:53:21.126Z,32.70
2017-04-04T04:54:25.804Z,32.50
2017-04-04T04:55:31.407Z,34.88
2017-04-04T04:56:36.076Z,33.15
2017-04-04T04:57:41.632Z,31.68
2017-04-04T04:58:46.461Z,33.55
2017-04-04T04:59:52.033Z,32.80
2017-04-04T05:00:57.630Z,34.88
2017-04-04T05:02:02.370Z,33.37
2017-04-04T05:03:07.090Z,33.17
2017-04-04T05:04:13.349Z,32.72
2017-04-04T05:05:18.867Z,33.03
2017-04-04T05:06:24.437Z,33.13
2017-04-04T05:07:29.231Z,33.68
2017-04-04T05:08:34.710Z,33.53
2017-04-04T05:09:39.430Z,33.33
2017-04-04T05:10:45.011Z,35.03
2017-04-04T05:11:51.185Z,34.35
2017-04-04T05:12:56.380Z,32.92
2017-04-04T05:14:02.152Z,33.17
2017-04-04T05:15:08.406Z,32.93
2017-04-04T05:16:13.913Z,33.88
2017-04-04T05:17:18.696Z,34.55
2017-04-04T05:18:24.985Z,33.85
2017-04-04T05:19:30.536Z,33.83
2017-04-04T05:20:35.350Z,32.70
2017-04-04T05:21:40.802Z,35.62
2017-04-04T05:22:46.425Z,34.20
2017-04-04T05:23:51.872Z,35.32
2017-04-04T05:24:56.636Z,37.03
2017-04-04T05:26:02.145Z,35.20
2017-04-04T05:27:06.932Z,34.93
2017-04-04T05:28:13.360Z,34.83
2017-04-04T05:29:18.956Z,37.87
2017-04-04T05:30:24.517Z,34.30
2017-04-04T05:31:30.034Z,33.42
2017-04-04T05:32:35.399Z,34.88
2017-04-04T05:33:41.619Z,34.85
2017-04-04T05:34:46.499Z,34.12
2017-04-04T05:35:51.409Z,36.12
2017-04-04T05:36:56.893Z,36.73
2017-04-04T05:38:02.433Z,33.43
2017-04-04T05:39:08.088Z,35.00
2017-04-04T05:40:13.749Z,35.68
2017-04-04T05:41:19.430Z,35.37
2017-04-04T05:42:25.785Z,36.18
2017-04-04T05:43:30.597Z,36.45
2017-04-04T05:44:36.237Z,33.32
2017-04-04T05:45:41.821Z,35.02
2017-04-04T05:46:47.520Z,35.95
2017-04-04T05:47:52.936Z,36.38
2017-04-04T05:48:58.460Z,37.50
2017-04-04T05:50:03.081Z,36.72
2017-04-04T05:51:08.525Z,37.05
2017-04-04T05:52:13.367Z,37.08
2017-04-04T05:53:18.984Z,35.63
2017-04-04T05:54:23.712Z,36.28
2017-04-04T05:55:30.064Z,35.33
2017-04-04T05:56:35.780Z,36.35
2017-04-04T05:57:43.524Z,35.05
2017-04-04T05:58:48.289Z,33.37
2017-04-04T05:59:52.949Z,35.62
2017-04-04T06:00:58.623Z,33.37
2017-04-04T06:02:03.276Z,34.37
2017-04-04T06:03:09.609Z,33.97
2017-04-04T06:04:14.465Z,34.63
2017-04-04T06:05:20.037Z,37.62
2017-04-04T06:06:26.429Z,36.80
2017-04-04T06:07:31.989Z,33.95
2017-04-04T06:08:36.784Z,38.52
2017-04-04T06:09:42.333Z,36.38
2017-04-04T06:10:47.846Z,31.80
2017-04-04T06:11:52.631Z,35.53
2017-04-04T06:12:58.134Z,35.38
2017-04-04T06:14:03.885Z,33.77
2017-04-04T06:15:09.218Z,34.23
2017-04-04T06:16:14.690Z,33.17
2017-04-04T06:17:21.081Z,36.40
2017-04-04T06:18:25.937Z,35.50
2017-04-04T06:19:30.673Z,35.42
2017-04-04T06:20:37.090Z,35.52
2017-04-04T06:21:41.912Z,36.02
2017-04-04T06:22:48.258Z,34.52
2017-04-04T06:23:53.053Z,35.12
2017-04-04T06:24:58.713Z,33.88
2017-04-04T06:26:04.197Z,34.77
2017-04-04T06:27:09.729Z,33.85
2017-04-04T06:28:15.693Z,34.92
2017-04-04T06:29:20.904Z,34.93
2017-04-04T06:30:26.457Z,33.58
2017-04-04T06:31:32.205Z,31.58
2017-04-04T06:32:37.656Z,35.12
2017-04-04T06:33:44.004Z,32.97
2017-04-04T06:34:48.754Z,36.18
2017-04-04T06:35:54.356Z,32.63
2017-04-04T06:36:59.925Z,34.18
2017-04-04T06:38:05.561Z,32.35
2017-04-04T06:39:11.865Z,32.32
2017-04-04T06:40:16.672Z,32.67
2017-04-04T06:41:22.134Z,32.20
2017-04-04T06:42:27.721Z,32.47
2017-04-04T06:43:33.258Z,32.93
2017-04-04T06:44:38.813Z,33.10
2017-04-04T06:45:44.350Z,30.35
2017-04-04T06:46:49.965Z,30.18
2017-04-04T06:47:55.400Z,31.43
2017-04-04T06:49:00.961Z,31.73
2017-04-04T06:50:05.744Z,31.38
2017-04-04T06:51:11.396Z,30.03
2017-04-04T06:52:16.931Z,29.57
2017-04-04T06:53:23.233Z,31.78
2017-04-04T06:54:28.050Z,33.13
2017-04-04T06:55:33.540Z,31.97
2017-04-04T06:56:38.229Z,31.88
2017-04-04T06:57:45.576Z,29.25
2017-04-04T06:58:51.142Z,31.42
2017-04-04T06:59:56.693Z,29.98
2017-04-04T07:01:02.210Z,29.43
2017-04-04T07:02:07.901Z,30.30
2017-04-04T07:03:13.456Z,26.83
2017-04-04T07:04:18.116Z,28.97
2017-04-04T07:05:23.797Z,30.18
2017-04-04T07:06:29.412Z,27.57
2017-04-04T07:07:35.000Z,30.90
2017-04-04T07:08:39.825Z,30.12
2017-04-04T07:09:45.268Z,31.10
2017-04-04T07:10:50.728Z,31.23
2017-04-04T07:11:56.341Z,30.80
2017-04-04T07:13:01.161Z,31.98
2017-04-04T07:14:06.737Z,33.32
2017-04-04T07:15:12.313Z,34.25
2017-04-04T07:16:17.922Z,34.02
2017-04-04T07:17:23.401Z,33.20
2017-04-04T07:18:28.892Z,32.95
2017-04-04T07:19:35.269Z,33.38
2017-04-04T07:20:41.593Z,34.65
2017-04-04T07:21:46.717Z,32.05
2017-04-04T07:22:52.294Z,31.28
2017-04-04T07:23:57.817Z,29.40
2017-04-04T07:25:04.163Z,29.38
2017-04-04T07:26:09.844Z,31.93
2017-04-04T07:27:15.373Z,30.55
2017-04-04T07:28:20.982Z,29.97
2017-04-04T07:29:26.566Z,31.67
2017-04-04T07:30:32.936Z,31.37
2017-04-04T07:31:37.577Z,29.23
2017-04-04T07:32:43.781Z,29.28
2017-04-04T07:33:49.752Z,28.30
2017-04-04T07:34:55.369Z,28.55
2017-04-04T07:36:00.985Z,28.57
2017-04-04T07:37:07.356Z,27.83
2017-04-04T07:38:12.157Z,27.70
2017-04-04T07:39:17.648Z,29.93
2017-04-04T07:40:23.358Z,30.67
2017-04-04T07:41:28.856Z,31.65
2017-04-04T07:42:34.440Z,28.72
2017-04-04T07:43:39.832Z,29.67
2017-04-04T07:44:44.733Z,31.62
2017-04-04T07:45:49.426Z,30.45
2017-04-04T07:46:55.723Z,27.43
2017-04-04T07:48:00.498Z,29.23
2017-04-04T07:49:06.121Z,29.82
2017-04-04T07:50:11.821Z,26.28
2017-04-04T07:51:18.500Z,28.85
2017-04-04T07:52:23.945Z,28.20
2017-04-04T07:53:29.461Z,28.22
2017-04-04T07:54:34.958Z,26.93
2017-04-04T07:55:41.785Z,28.47
2017-04-04T07:56:47.049Z,29.83
2017-04-04T07:57:52.500Z,28.83
2017-04-04T07:58:58.027Z,26.45
2017-04-04T08:00:02.852Z,28.93
2017-04-04T08:01:08.337Z,27.32
2017-04-04T08:02:14.721Z,28.17
2017-04-04T08:03:20.045Z,27.48
2017-04-04T08:04:26.212Z,29.30
2017-04-04T08:05:30.973Z,27.85
2017-04-04T08:06:36.440Z,28.88
2017-04-04T08:07:41.921Z,27.63
2017-04-04T08:08:46.645Z,27.38
2017-04-04T08:09:52.225Z,27.33
2017-04-04T08:10:58.602Z,26.80
2017-04-04T08:12:03.257Z,28.95
2017-04-04T08:13:09.657Z,26.87
2017-04-04T08:14:15.245Z,28.10
2017-04-04T08:15:20.045Z,30.30
2017-04-04T08:16:26.404Z,28.30
2017-04-04T08:17:31.269Z,27.67
2017-04-04T08:18:36.836Z,28.57
2017-04-04T08:19:41.525Z,27.42
2017-04-04T08:20:47.007Z,27.77
2017-04-04T08:21:51.624Z,27.37
2017-04-04T08:22:56.397Z,28.13
2017-04-04T08:24:01.873Z,29.27
2017-04-04T08:25:08.273Z,27.73
2017-04-04T08:26:12.940Z,27.93
2017-04-04T08:27:19.284Z,29.32
2017-04-04T08:28:26.168Z,28.82
2017-04-04T08:29:30.938Z,27.98
2017-04-04T08:30:36.537Z,28.08
2017-04-04T08:31:42.129Z,26.72
2017-04-04T08:32:48.409Z,27.52
2017-04-04T08:33:53.942Z,28.97
2017-04-04T08:34:58.597Z,28.78
2017-04-04T08:36:04.308Z,26.82
2017-04-04T08:37:09.889Z,28.02
2017-04-04T08:38:14.574Z,27.45
2017-04-04T08:39:20.170Z,27.78
2017-04-04T08:40:26.565Z,27.03
2017-04-04T08:41:31.390Z,27.97
2017-04-04T08:42:36.852Z,26.10
2017-04-04T08:43:42.548Z,27.47
2017-04-04T08:44:48.861Z,28.10
2017-04-04T08:45:53.921Z,27.52
2017-04-04T08:46:59.577Z,27.58
2017-04-04T08:48:05.929Z,27.87
2017-04-04T08:49:10.777Z,26.05
2017-04-04T08:50:17.212Z,27.47
2017-04-04T08:51:21.905Z,27.23
2017-04-04T08:52:27.634Z,28.07
2017-04-04T08:53:33.132Z,28.13
2017-04-04T08:54:38.733Z,26.17
2017-04-04T08:55:45.101Z,26.50
2017-04-04T08:56:49.789Z,28.95
2017-04-04T08:57:55.373Z,29.28
2017-04-04T08:59:00.111Z,27.32
2017-04-04T09:00:05.610Z,28.63
2017-04-04T09:01:11.048Z,27.37
2017-04-04T09:02:16.680Z,28.18
2017-04-04T09:03:21.520Z,29.10
2017-04-04T09:04:27.065Z,28.80
2017-04-04T09:05:32.676Z,27.40
2017-04-04T09:06:38.157Z,27.12
2017-04-04T09:07:44.388Z,26.40
2017-04-04T09:08:49.200Z,27.03
2017-04-04T09:09:55.420Z,26.42
2017-04-04T09:11:01.081Z,25.70
2017-04-04T09:12:06.597Z,29.97
2017-04-04T09:13:11.466Z,28.22
2017-04-04T09:14:17.933Z,28.20
2017-04-04T09:15:22.769Z,27.55
2017-04-04T09:16:28.263Z,27.92
2017-04-04T09:17:33.784Z,28.15
2017-04-04T09:18:40.745Z,26.78
2017-04-04T09:19:45.964Z,27.28
2017-04-04T09:20:51.571Z,27.28
2017-04-04T09:21:57.246Z,28.00
2017-04-04T09:23:03.637Z,28.60
2017-04-04T09:24:09.137Z,28.22
2017-04-04T09:25:14.130Z,28.35
2017-04-04T09:26:20.356Z,29.48
2017-04-04T09:27:25.201Z,28.67
2017-04-04T09:28:31.446Z,28.88
2017-04-04T09:29:37.252Z,30.20
2017-04-04T09:30:42.006Z,27.95
2017-04-04T09:31:47.460Z,29.05
2017-04-04T09:32:52.915Z,27.57
2017-04-04T09:33:58.514Z,28.68
2017-04-04T09:35:04.745Z,28.37
2017-04-04T09:36:09.581Z,28.15
2017-04-04T09:37:15.653Z,27.67
2017-04-04T09:38:20.646Z,29.82
2017-04-04T09:39:26.203Z,27.35
2017-04-04T09:40:32.493Z,28.52
2017-04-04T09:41:37.216Z,28.00
2017-04-04T09:42:42.773Z,27.63
2017-04-04T09:43:49.077Z,27.43
2017-04-04T09:44:53.813Z,28.45
2017-04-04T09:45:59.421Z,26.52
2017-04-04T09:47:05.745Z,27.35
2017-04-04T09:48:11.448Z,27.85
2017-04-04T09:49:16.253Z,27.67
2017-04-04T09:50:22.530Z,28.73
2017-04-04T09:51:27.457Z,27.77
2017-04-04T09:52:33.081Z,26.58
2017-04-04T09:53:38.675Z,25.52
2017-04-04T09:54:45.065Z,28.72
2017-04-04T09:55:49.909Z,27.40
2017-04-04T09:56:56.244Z,26.80
2017-04-04T09:58:01.961Z,25.98
2017-04-04T09:59:06.805Z,25.68
2017-04-04T10:00:12.369Z,26.43
2017-04-04T10:01:18.329Z,25.83
2017-04-04T10:02:23.425Z,25.33
2017-04-04T10:03:29.041Z,24.33
2017-04-04T10:04:35.394Z,24.37
2017-04-04T10:05:40.933Z,24.10
2017-04-04T10:06:45.724Z,24.63
2017-04-04T10:07:51.316Z,24.05
2017-04-04T10:08:56.940Z,22.30
2017-04-04T10:10:02.533Z,24.43
2017-04-04T10:11:08.141Z,24.68
2017-04-04T10:12:13.778Z,23.78
2017-04-04T10:13:19.324Z,25.33
2017-04-04T10:14:24.889Z,25.32
2017-04-04T10:15:30.548Z,23.13
2017-04-04T10:16:35.977Z,24.45
2017-04-04T10:17:41.655Z,25.65
2017-04-04T10:18:46.340Z,24.08
2017-04-04T10:19:51.816Z,24.77
2017-04-04T10:20:57.435Z,24.58
2017-04-04T10:22:02.836Z,25.08
2017-04-04T10:23:08.361Z,23.60
2017-04-04T10:24:13.872Z,23.27
2017-04-04T10:25:19.468Z,24.08
2017-04-04T10:26:24.932Z,24.48
2017-04-04T10:27:31.393Z,23.10
2017-04-04T10:28:36.845Z,27.22
2017-04-04T10:29:41.641Z,25.97
2017-04-04T10:30:47.273Z,23.58
2017-04-04T10:31:52.696Z,21.92
2017-04-04T10:32:58.223Z,22.85
2017-04-04T10:34:02.941Z,22.08
2017-04-04T10:35:08.484Z,22.48
2017-04-04T10:36:14.158Z,22.27
2017-04-04T10:37:19.522Z,22.08
2017-04-04T10:38:25.960Z,21.35
2017-04-04T10:39:31.361Z,22.03
2017-04-04T10:40:36.167Z,22.88
2017-04-04T10:41:41.744Z,23.05
2017-04-04T10:42:47.226Z,23.67
2017-04-04T10:43:52.745Z,22.40
2017-04-04T10:44:58.294Z,23.78
2017-04-04T10:46:03.938Z,24.90
2017-04-04T10:47:09.746Z,25.25
2017-04-04T10:48:15.408Z,25.55
2017-04-04T10:49:20.832Z,24.65
2017-04-04T10:50:26.489Z,24.92
2017-04-04T10:51:32.876Z,22.78
2017-04-04T10:52:37.652Z,20.23
2017-04-04T10:53:43.161Z,23.18
2017-04-04T10:54:49.500Z,23.68
2017-04-04T10:55:54.301Z,22.77
2017-04-04T10:56:59.869Z,21.40
2017-04-04T10:58:07.285Z,21.08
2017-04-04T10:59:12.900Z,19.82
2017-04-04T11:00:18.621Z,21.10
2017-04-04T11:01:24.204Z,20.75
2017-04-04T11:02:30.564Z,19.28
2017-04-04T11:03:36.116Z,20.40
2017-04-04T11:04:40.881Z,20.27
2017-04-04T11:05:46.521Z,21.82
2017-04-04T11:06:52.156Z,22.47
2017-04-04T11:07:57.757Z,22.28
2017-04-04T11:09:04.325Z,24.23
2017-04-04T11:10:09.269Z,24.25
2017-04-04T11:11:15.616Z,24.53
2017-04-04T11:12:21.156Z,23.30
2017-04-04T11:13:26.777Z,22.50
2017-04-04T11:14:32.388Z,23.43
2017-04-04T11:15:37.828Z,23.02
2017-04-04T11:16:42.660Z,22.70
2017-04-04T11:17:48.982Z,23.12
2017-04-04T11:18:54.512Z,23.43
2017-04-04T11:20:00.127Z,23.02
2017-04-04T11:21:05.703Z,21.80
2017-04-04T11:22:11.177Z,19.40
2017-04-04T11:23:16.073Z,20.28
2017-04-04T11:24:21.702Z,19.18
2017-04-04T11:25:28.858Z,19.67
2017-04-04T11:26:34.578Z,20.95
2017-04-04T11:27:40.193Z,21.15
2017-04-04T11:28:47.986Z,20.62
2017-04-04T11:29:53.605Z,20.13
2017-04-04T11:30:59.245Z,21.17
2017-04-04T11:32:04.800Z,18.58
2017-04-04T11:33:11.125Z,19.77
2017-04-04T11:34:15.919Z,19.90
2017-04-04T11:35:22.303Z,20.97
2017-04-04T11:36:27.313Z,21.45
2017-04-04T11:37:32.677Z,20.92
2017-04-04T11:38:38.260Z,21.50
2017-04-04T11:39:44.533Z,22.22
2017-04-04T11:40:49.328Z,20.15
2017-04-04T11:41:54.956Z,20.43
2017-04-04T11:43:00.464Z,21.77
2017-04-04T11:44:06.832Z,20.65
2017-04-04T11:45:11.679Z,21.28
2017-04-04T11:46:18.006Z,20.87
2017-04-04T11:47:23.269Z,20.12
2017-04-04T11:48:28.380Z,21.07
2017-04-04T11:49:34.014Z,22.70
2017-04-04T11:50:39.637Z,23.53
2017-04-04T11:51:45.952Z,21.80
2017-04-04T11:52:50.756Z,21.18
2017-04-04T11:53:57.134Z,21.68
2017-04-04T11:55:01.926Z,21.73
2017-04-04T11:56:07.524Z,20.85
2017-04-04T11:57:13.885Z,21.77
2017-04-04T11:58:20.633Z,23.68
2017-04-04T11:59:26.244Z,21.45
2017-04-04T12:00:31.796Z,17.68
2017-04-04T12:01:36.570Z,17.77
2017-04-04T12:02:42.181Z,17.02
2017-04-04T12:03:48.545Z,16.33
2017-04-04T12:04:53.361Z,16.15
2017-04-04T12:05:59.069Z,15.28
2017-04-04T12:07:04.657Z,13.63
2017-04-04T12:08:10.165Z,15.80
2017-04-04T12:09:15.697Z,15.28
2017-04-04T12:10:20.413Z,15.77
2017-04-04T12:11:26.777Z,14.42
2017-04-04T12:12:31.434Z,15.88
2017-04-04T12:13:36.888Z,16.12
2017-04-04T12:14:43.274Z,15.63
2017-04-04T12:15:47.985Z,16.50
2017-04-04T12:16:53.512Z,17.08
2017-04-04T12:17:59.537Z,18.95
2017-04-04T12:19:04.556Z,17.53
2017-04-04T12:20:10.216Z,17.70
2017-04-04T12:21:15.752Z,18.80
2017-04-04T12:22:21.297Z,17.48
2017-04-04T12:23:26.880Z,18.62
2017-04-04T12:24:33.157Z,17.23
2017-04-04T12:25:38.020Z,17.03
2017-04-04T12:26:44.271Z,17.60
2017-04-04T12:27:49.080Z,17.47
2017-04-04T12:28:55.416Z,17.22
2017-04-04T12:30:01.825Z,17.50
2017-04-04T12:31:06.861Z,14.80
2017-04-04T12:32:13.311Z,17.40
2017-04-04T12:33:18.168Z,15.40
2017-04-04T12:34:23.620Z,16.02
2017-04-04T12:35:29.861Z,15.28
2017-04-04T12:36:34.857Z,14.57
2017-04-04T12:37:40.329Z,12.97
2017-04-04T12:38:45.897Z,12.60
2017-04-04T12:39:50.806Z,12.72
2017-04-04T12:40:56.417Z,13.98
2017-04-04T12:42:02.029Z,14.18
2017-04-04T12:43:08.236Z,12.65
2017-04-04T12:44:13.850Z,13.88
2017-04-04T12:45:19.316Z,12.43
2017-04-04T12:46:24.137Z,12.40
2017-04-04T12:47:29.643Z,12.90
2017-04-04T12:48:37.977Z,11.37
2017-04-04T12:49:43.690Z,13.75
2017-04-04T12:50:49.938Z,12.12
2017-04-04T12:51:54.801Z,11.85
2017-04-04T12:53:01.237Z,11.95
2017-04-04T12:54:06.099Z,13.15
2017-04-04T12:55:12.342Z,13.55
2017-04-04T12:56:17.938Z,12.25
2017-04-04T12:57:22.790Z,10.42
2017-04-04T12:58:30.238Z,10.50
2017-04-04T12:59:34.999Z,10.73
2017-04-04T13:00:40.468Z,9.80
2017-04-04T13:01:47.231Z,11.02
2017-04-04T13:02:53.773Z,10.45
2017-04-04T13:03:59.466Z,10.17
2017-04-04T13:05:05.818Z,11.45
2017-04-04T13:06:12.178Z,11.73
2017-04-04T13:07:17.918Z,11.22
2017-04-04T13:08:22.765Z,12.20
2017-04-04T13:09:29.300Z,11.23
2017-04-04T13:10:33.985Z,11.02
2017-04-04T13:11:40.368Z,9.45
2017-04-04T13:12:45.425Z,8.62
2017-04-04T13:13:51.660Z,8.00
2017-04-04T13:14:56.593Z,8.43
2017-04-04T13:16:02.126Z,8.38
2017-04-04T13:17:07.481Z,7.85
2017-04-04T13:18:13.084Z,7.38
2017-04-04T13:19:19.356Z,7.85
2017-04-04T13:20:24.945Z,8.38
2017-04-04T13:21:31.309Z,7.62
2017-04-04T13:22:37.188Z,6.65
2017-04-04T13:23:42.880Z,6.75
2017-04-04T13:24:47.597Z,6.60
2017-04-04T13:25:52.361Z,6.55
2017-04-04T13:26:57.895Z,4.88
2017-04-04T13:28:02.616Z,5.60
2017-04-04T13:29:10.145Z,5.23
2017-04-04T13:30:15.823Z,4.98
2017-04-04T13:31:21.485Z,4.42
2017-04-04T13:32:27.761Z,6.15
2017-04-04T13:33:33.384Z,6.08
2017-04-04T13:34:39.058Z,6.07
2017-04-04T13:35:44.149Z,6.27
2017-04-04T13:36:50.357Z,7.65
2017-04-04T13:37:55.237Z,6.43
2017-04-04T13:39:00.749Z,6.20
2017-04-04T13:40:06.379Z,8.63
2017-04-04T13:41:12.206Z,7.90
2017-04-04T13:42:17.191Z,6.58
2017-04-04T13:43:22.526Z,5.53
2017-04-04T13:44:28.029Z,5.45
2017-04-04T13:45:33.973Z,5.17
2017-04-04T13:46:39.948Z,5.33
2017-04-04T13:47:44.886Z,5.98
2017-04-04T13:48:49.540Z,6.85
2017-04-04T13:49:55.021Z,6.88
2017-04-04T13:51:00.753Z,6.97
2017-04-04T13:52:06.530Z,7.35
2017-04-04T13:53:11.490Z,6.82
2017-04-04T13:54:17.753Z,7.40
2017-04-04T13:55:23.301Z,6.45
2017-04-04T13:56:29.013Z,7.05
2017-04-04T13:57:34.568Z,7.53
2017-04-04T13:58:40.351Z,7.32
2017-04-04T13:59:45.977Z,6.97
2017-04-04T14:00:51.524Z,6.22
2017-04-04T14:01:56.428Z,6.62
2017-04-04T14:03:02.109Z,7.20
2017-04-04T14:04:08.569Z,6.17
2017-04-04T14:05:13.364Z,5.95
2017-04-04T14:06:18.918Z,6.38